Layer de la Haye, United Kingdom
Current Conditions -  °F | °C
As of 2:50 PM on Sunday 21 Dec 2014 (Local Time) from EGUW Reporting Station
Broken Clouds Broken Clouds  
Wind Chill:   Ceiling: 1500
Heat Index:   Visibility: 6mi
Dew Point:   Wind: 23mph
Humidity: 82%   Direction: 250°WSW
Pressure: 30.15"   Gusts: NA
Location:  51.85°N, 0.86°E
Report Text: EGUW 211450Z AUTO 25020KT 9999 BKN015/// 09/06 Q1021
Loading
Personal Weather Stations






























Interactive Weather Map New forecast layout! Learn more

10-Day Weather Forecast

Advertisements
Track Severe Weather on mobile